EGLL

London Heathrow Airport

London, United Kingdom
TAF AMD EGLL 210642Z 2106/2212 08005KT 7000 NSC BECMG 2107/2110 CAVOK BECMG 2112/2115 15010KT TEMPO 2118/2124 7000 SHRA PROB30 TEMPO 2120/2124 20015G25KT 4000 +SHRA TSGS
Issued Valid From Valid To
Apr-21 @ 06:42 UTC
(3 hours ago)
Apr-21 @ 06:00 UTC
(4 hours ago)
Apr-22 @ 12:00 UTC
(-1 days ago)
Expired Click to View Apr-21 @ 06:00 to Apr-21 @ 07:00
TAF AMD EGLL 210642Z 2106/2212 08005KT 7000 NSC
Wind Visibility Clouds
80° at 5 knots 7,001 meters
  • No significant clouds
Becoming Apr-21 @ 07:00 to Apr-21 @ 12:00
BECMG 2107/2110 CAVOK
Wind Visibility Clouds Conditions
80° at 5 knots 10,000+ meters
  • No significant clouds
Becoming Apr-21 @ 12:00 to Apr-22 @ 12:00
BECMG 2112/2115 15010KT
Wind Visibility Clouds Conditions
150° at 10 knots 10,000+ meters
  • No significant clouds
Temporary Apr-21 @ 18:00 to Apr-22 @ 00:00
TEMPO 2118/2124 7000 SHRA
Visibility Conditions
7,001 meters
  • Rain
Temporary  (Probability 30%) Apr-21 @ 20:00 to Apr-22 @ 00:00
PROB30 TEMPO 2120/2124 20015G25KT 4000 +SHRA TSGS
Wind Visibility Conditions
200° at 15 knots
 Gusting to 25 knots
4,007 meters
  • Heavy Rain
  • Thunderstorm
  • Small hail
TAF AMD EGLL 210642Z 2106/2212 08005KT 7000 NSC BECMG 2107/2110 CAVOK BECMG 2112/2115 15010KT TEMPO 2118/2124 7000 SHRA PROB30 TEMPO 2120/2124 20015G25KT 4000 +SHRA TSGS
Issued Apr-21 @ 06:42 UTC
(3 hours ago)
Valid From Apr-21 @ 06:00 UTC
(4 hours ago)
Valid To Apr-22 @ 12:00 UTC
(-1 days ago)
Apr-21 @ 06:00 - Apr-21 @ 07:00
Wind Visibility
80° at 5 knots 7,001 meters
Clouds
  • No significant clouds
Becoming Apr-21 @ 07:00 - Apr-21 @ 12:00
Wind Visibility
80° at 5 knots 10,000+ meters
Clouds
  • No significant clouds
Conditions
Becoming Apr-21 @ 12:00 - Apr-22 @ 12:00
Wind Visibility
150° at 10 knots 10,000+ meters
Clouds
  • No significant clouds
Conditions
Temporary Apr-21 @ 18:00 - Apr-22 @ 00:00
Conditions
  • Rain
Probability 30% Temporary Apr-21 @ 20:00 - Apr-22 @ 00:00
Wind Visibility
200° at 15 knots
 Gusting to 25 knots
4,007 meters
Conditions
  • Heavy Rain
  • Thunderstorm
  • Small hail